Time;durP1;ratioP1;P1;durP2;ratioP2;P2;SDS_P1;SDS_P2;PMS_P1;PMS_P2;Temp;Humidity;BMP_temperature;BMP_pressure;BME280_temperature;BME280_humidity;BME280_pressure;Samples;Min_cycle;Max_cycle;Signal;HPM_P1;HPM_P2
2022/06/18 00:00:22;;;;;;;;;14.67;13.67;;;;;28.59;40.10;101463.22;5078907;28;45471;-71
2022/06/18 00:02:48;;;;;;;;;16.00;15.00;;;;;28.40;41.50;101432.53;5078429;28;46313;-69
2022/06/18 00:05:16;;;;;;;;;15.00;14.00;;;;;28.58;41.54;101456.09;5078205;27;45347;-70
2022/06/18 00:07:52;;;;;;;;;19.00;16.00;;;;;28.01;39.84;101365.88;5077260;28;45343;-70
2022/06/18 00:10:24;;;;;;;;;16.33;15.33;;;;;28.54;41.35;101454.94;5078666;27;45597;-70
2022/06/18 00:15:37;;;;;;;;;17.00;15.00;;;;;28.24;40.82;101414.16;5078484;28;45520;-69
2022/06/18 00:18:10;;;;;;;;;17.33;16.33;;;;;28.40;40.28;101437.16;5078436;27;45466;-72
2022/06/18 00:20:40;;;;;;;;;14.00;14.00;;;;;28.46;41.03;101450.72;5078446;27;45361;-72
2022/06/18 00:23:15;;;;;;;;;16.00;14.33;;;;;28.35;39.57;101423.41;5078343;28;46598;-72
2022/06/18 00:25:44;;;;;;;;;21.00;18.33;;;;;28.35;41.44;101439.81;5077065;27;45236;-69
2022/06/18 00:28:14;;;;;;;;;24.67;22.33;;;;;28.43;40.75;101444.88;5078761;28;45489;-70
2022/06/18 00:30:39;;;;;;;;;16.67;16.00;;;;;28.37;39.56;101438.47;5093900;27;45862;-70
2022/06/18 00:33:05;;;;;;;;;16.00;14.67;;;;;27.87;41.10;101356.31;5077990;27;45536;-71
2022/06/18 00:35:32;;;;;;;;;15.33;15.33;;;;;27.59;40.10;101314.19;5078133;28;45349;-70
2022/06/18 00:38:02;;;;;;;;;13.33;13.33;;;;;28.06;40.70;101404.25;5077885;28;45520;-69
2022/06/18 00:40:36;;;;;;;;;15.00;14.00;;;;;28.30;39.95;101432.34;5093826;27;45634;-70
2022/06/18 00:43:13;;;;;;;;;16.67;13.67;;;;;28.35;39.43;101445.28;5077671;27;46151;-70
2022/06/18 00:45:39;;;;;;;;;15.67;12.00;;;;;28.31;40.00;101449.59;5077643;27;45474;-71
2022/06/18 00:48:18;;;;;;;;;17.67;15.33;;;;;28.22;38.98;101424.47;5078536;27;45328;-70
2022/06/18 00:50:50;;;;;;;;;9.67;9.67;;;;;28.02;37.67;101392.13;5078967;28;45461;-70
2022/06/18 00:53:23;;;;;;;;;15.33;12.00;;;;;28.31;39.75;101455.06;5078082;27;46481;-71
2022/06/18 00:56:06;;;;;;;;;10.00;9.33;;;;;28.07;38.63;101410.53;5077936;27;45276;-70
2022/06/18 00:58:58;;;;;;;;;10.00;10.00;;;;;28.28;40.02;101444.59;5078081;27;45399;-70
2022/06/18 01:01:29;;;;;;;;;10.00;10.00;;;;;28.05;40.44;101410.78;5039548;27;45509;-70
2022/06/18 01:03:55;;;;;;;;;11.33;11.33;;;;;28.26;42.00;101450.31;5077385;27;45754;-71
2022/06/18 01:06:33;;;;;;;;;13.33;12.67;;;;;28.08;41.59;101413.03;5077568;27;45376;-70
2022/06/18 01:09:05;;;;;;;;;14.33;14.33;;;;;28.22;42.14;101446.34;5093364;27;45371;-69
2022/06/18 01:11:33;;;;;;;;;18.00;15.00;;;;;27.88;42.21;101394.34;5077739;27;45293;-70
2022/06/18 01:14:01;;;;;;;;;14.67;14.67;;;;;28.19;41.26;101449.59;5077533;28;46690;-70
2022/06/18 01:16:28;;;;;;;;;14.33;14.33;;;;;28.15;42.38;101445.69;5077326;27;45571;-70
2022/06/18 01:18:53;;;;;;;;;14.33;14.33;;;;;28.14;42.56;101450.31;5076236;28;45499;-70
2022/06/18 01:21:54;;;;;;;;;15.00;14.33;;;;;28.11;42.41;101452.72;5076191;28;45617;-69
2022/06/18 01:24:31;;;;;;;;;13.00;13.00;;;;;28.10;43.45;101445.59;5075698;27;48613;-71
2022/06/18 01:26:57;;;;;;;;;17.33;16.00;;;;;28.08;42.64;101445.84;5092647;27;45319;-71
2022/06/18 01:29:22;;;;;;;;;15.67;15.67;;;;;27.99;43.44;101430.88;5075812;28;45204;-71
2022/06/18 01:31:50;;;;;;;;;19.67;18.00;;;;;27.95;43.90;101424.25;5077590;27;45446;-70
2022/06/18 01:34:16;;;;;;;;;17.33;15.67;;;;;27.80;42.61;101396.59;5077047;27;45908;-69
2022/06/18 01:36:42;;;;;;;;;20.00;16.00;;;;;27.91;43.63;101417.59;5092252;27;45436;-72
2022/06/18 01:39:19;;;;;;;;;15.00;14.00;;;;;27.87;42.74;101421.91;5077316;27;45437;-71
2022/06/18 01:41:50;;;;;;;;;15.00;15.00;;;;;27.94;43.57;101436.25;5077498;27;45505;-70
2022/06/18 01:44:23;;;;;;;;;17.33;15.67;;;;;27.92;43.59;101424.72;5076931;27;46054;-69
2022/06/18 01:46:54;;;;;;;;;22.33;20.33;;;;;27.90;43.49;101429.63;5092473;27;45378;-70
2022/06/18 01:49:25;;;;;;;;;26.00;26.00;;;;;27.89;43.76;101425.22;5077027;28;45232;-68
2022/06/18 01:51:55;;;;;;;;;17.33;15.33;;;;;27.86;42.70;101422.97;5077288;28;45354;-69
2022/06/18 01:54:27;;;;;;;;;14.00;12.00;;;;;27.82;40.97;101424.50;5076895;27;46481;-71
2022/06/18 01:56:59;;;;;;;;;12.00;11.00;;;;;27.82;40.82;101421.78;5092480;27;45284;-73
2022/06/18 01:59:35;;;;;;;;;12.33;12.33;;;;;27.59;39.74;101387.13;5076779;27;45503;-70
2022/06/18 02:02:03;;;;;;;;;12.33;12.33;;;;;27.53;40.20;101377.16;5077002;27;45264;-70
2022/06/18 02:04:30;;;;;;;;;14.67;12.67;;;;;27.52;40.26;101373.59;5075173;28;47159;-71
2022/06/18 02:06:55;;;;;;;;;16.00;13.33;;;;;27.65;39.88;101397.13;5074986;28;45454;-71
2022/06/18 02:09:47;;;;;;;;;10.33;10.33;;;;;27.57;40.73;101370.16;5076826;27;45509;-71
2022/06/18 02:12:18;;;;;;;;;10.67;10.67;;;;;27.31;40.24;101333.28;5075631;28;45454;-71
2022/06/18 02:14:49;;;;;;;;;12.00;12.00;;;;;27.67;40.93;101403.19;5076489;28;46586;-69
2022/06/18 02:17:18;;;;;;;;;10.00;10.00;;;;;27.48;39.83;101371.59;5075247;28;45502;-70
2022/06/18 02:20:01;;;;;;;;;19.33;14.00;;;;;27.63;40.76;101404.72;5076716;27;45457;-70
2022/06/18 02:22:33;;;;;;;;;13.33;12.67;;;;;27.63;41.40;101401.16;5075555;28;45264;-71
2022/06/18 02:24:58;;;;;;;;;13.67;13.67;;;;;27.52;40.98;101375.50;5075279;28;47737;-69
2022/06/18 02:27:24;;;;;;;;;13.00;11.33;;;;;26.92;42.03;101289.28;5076543;27;45287;-71
2022/06/18 02:29:50;;;;;;;;;12.00;12.00;;;;;27.61;40.99;101395.06;5076913;28;45307;-72
2022/06/18 02:32:24;;;;;;;;;13.67;13.67;;;;;27.53;40.09;101388.94;5076819;27;45311;-70
2022/06/18 02:34:50;;;;;;;;;14.33;13.00;;;;;27.50;41.16;101373.03;5076201;27;46248;-70
2022/06/18 02:37:22;;;;;;;;;14.00;12.33;;;;;27.29;40.83;101340.91;5076296;28;45227;-71
2022/06/18 02:39:58;;;;;;;;;15.00;13.33;;;;;27.52;41.57;101387.25;5076610;28;45268;-71
2022/06/18 02:42:27;;;;;;;;;14.00;12.67;;;;;27.51;42.18;101377.41;5075192;28;45443;-69
2022/06/18 02:44:53;;;;;;;;;13.33;13.33;;;;;27.44;43.07;101368.53;5076333;27;45506;-71
2022/06/18 02:47:21;;;;;;;;;11.67;11.67;;;;;27.49;40.81;101367.81;5076833;28;45219;-70
2022/06/18 02:49:56;;;;;;;;;15.00;15.00;;;;;27.47;41.09;101369.94;5079167;28;45248;-71
2022/06/18 02:52:25;;;;;;;;;16.00;12.33;;;;;27.01;41.20;101295.22;5080714;28;45375;-72
2022/06/18 02:54:59;;;;;;;;;15.00;14.67;;;;;26.75;41.61;101255.59;5079714;27;46507;-69
2022/06/18 02:57:27;;;;;;;;;14.33;11.67;;;;;27.38;41.61;101355.00;5079654;27;45379;-71
2022/06/18 02:59:53;;;;;;;;;13.33;13.33;;;;;27.24;41.58;101332.59;5078421;28;45590;-72
2022/06/18 03:02:18;;;;;;;;;16.00;15.00;;;;;27.32;42.94;101347.78;5080061;27;45490;-70
2022/06/18 03:04:44;;;;;;;;;13.67;12.67;;;;;27.26;42.16;101338.66;5079547;27;45354;-72
2022/06/18 03:07:10;;;;;;;;;14.00;14.00;;;;;27.09;42.70;101316.72;5079697;27;45430;-70
2022/06/18 03:12:06;;;;;;;;;13.67;13.67;;;;;27.29;42.49;101346.34;5079539;27;45239;-72
2022/06/18 03:12:21;;;;;;;;;12.33;12.33;;;;;27.17;42.85;101329.97;5079494;27;45211;-71
2022/06/18 03:14:46;;;;;;;;;13.67;12.67;;;;;27.04;43.29;101296.66;5077896;28;48681;-68
2022/06/18 03:17:12;;;;;;;;;12.00;12.00;;;;;27.17;42.58;101320.97;5079262;27;45330;-70
2022/06/18 03:19:44;;;;;;;;;14.00;14.00;;;;;27.13;43.01;101317.88;5079073;27;46252;-70
2022/06/18 03:22:14;;;;;;;;;14.00;12.00;;;;;27.15;42.36;101331.28;5079506;27;45425;-69
2022/06/18 03:24:41;;;;;;;;;13.33;13.33;;;;;27.08;43.42;101320.50;5078778;27;46612;-70
2022/06/18 03:27:08;;;;;;;;;17.33;15.00;;;;;27.04;44.26;101330.25;5078893;28;45284;-69
2022/06/18 03:29:34;;;;;;;;;14.67;13.33;;;;;26.99;43.33;101319.16;5079119;27;45528;-71
2022/06/18 03:32:03;;;;;;;;;13.33;12.00;;;;;26.41;43.54;101245.53;5079467;28;45579;-69
2022/06/18 03:34:28;;;;;;;;;14.33;14.33;;;;;26.66;43.90;101278.88;5077651;28;46367;-70
2022/06/18 03:36:53;;;;;;;;;17.00;14.33;;;;;26.93;43.59;101312.78;5078920;27;45320;-71
2022/06/18 03:39:19;;;;;;;;;13.33;13.33;;;;;26.68;43.55;101282.19;5079184;27;46449;-69
2022/06/18 03:41:45;;;;;;;;;14.00;14.00;;;;;26.60;43.88;101275.16;5079182;28;45292;-69
2022/06/18 03:44:10;;;;;;;;;16.00;15.00;;;;;25.67;43.67;101134.19;5078771;27;46402;-69
2022/06/18 03:46:40;;;;;;;;;16.00;14.67;;;;;26.72;43.59;101309.81;5078800;27;45424;-68
2022/06/18 03:49:07;;;;;;;;;13.67;13.67;;;;;26.68;43.81;101301.28;5078860;27;45271;-68
2022/06/18 03:51:33;;;;;;;;;14.00;14.00;;;;;26.75;43.94;101321.09;5094674;27;45401;-71
2022/06/18 03:53:59;;;;;;;;;14.33;14.33;;;;;26.29;45.53;101245.50;5078590;28;46515;-71
2022/06/18 03:56:27;;;;;;;;;12.33;12.33;;;;;26.34;43.99;101251.06;5077186;28;45355;-74
2022/06/18 03:58:53;;;;;;;;;12.00;10.67;;;;;26.64;45.28;101305.56;5078706;27;45289;-72
2022/06/18 04:01:22;;;;;;;;;12.67;12.67;;;;;26.70;44.74;101314.69;5078787;28;45529;-73
2022/06/18 04:03:48;;;;;;;;;12.67;12.67;;;;;26.58;44.16;101292.84;5078488;27;46607;-71
2022/06/18 04:06:16;;;;;;;;;17.00;14.67;;;;;26.28;44.26;101239.22;5078264;27;45315;-68
2022/06/18 04:08:43;;;;;;;;;14.67;12.67;;;;;25.99;44.36;101191.91;5078795;27;45517;-70
2022/06/18 04:11:11;;;;;;;;;16.67;16.67;;;;;26.44;44.91;101264.16;5094488;27;45313;-73
2022/06/18 04:13:37;;;;;;;;;13.33;13.00;;;;;26.76;44.97;101305.53;5078145;27;46429;-71
2022/06/18 04:16:03;;;;;;;;;11.00;11.00;;;;;26.78;44.08;101306.97;5093967;27;46171;-70
2022/06/18 04:18:29;;;;;;;;;13.67;13.67;;;;;26.71;44.10;101286.34;5078623;28;45314;-69
2022/06/18 04:20:54;;;;;;;;;15.33;14.33;;;;;26.27;43.61;101210.31;5078617;28;45552;-70
2022/06/18 04:23:20;;;;;;;;;12.00;12.00;;;;;26.76;43.63;101306.38;5077235;28;45655;-70
2022/06/18 04:25:46;;;;;;;;;10.67;10.67;;;;;26.72;43.14;101299.75;5094203;27;45540;-69
2022/06/18 04:28:15;;;;;;;;;14.67;14.33;;;;;26.63;43.26;101284.78;5078392;27;45431;-73
2022/06/18 04:30:41;;;;;;;;;14.33;13.33;;;;;26.75;43.51;101295.69;5078597;27;45488;-72
2022/06/18 04:33:07;;;;;;;;;12.67;11.67;;;;;26.75;44.03;101296.53;5093873;27;47117;-69
2022/06/18 04:35:33;;;;;;;;;12.00;11.67;;;;;26.76;43.24;101292.72;5078087;27;45523;-69
2022/06/18 04:38:00;;;;;;;;;15.67;14.33;;;;;26.50;43.63;101246.84;5078309;27;45321;-70
2022/06/18 04:40:32;;;;;;;;;13.33;13.33;;;;;26.76;43.48;101294.63;5093937;27;45367;-70
2022/06/18 04:43:03;;;;;;;;;14.33;14.33;;;;;26.75;44.08;101293.81;5077963;27;46966;-70
2022/06/18 04:45:29;;;;;;;;;13.67;13.67;;;;;26.47;44.32;101247.34;5077620;27;45507;-73
2022/06/18 04:47:55;;;;;;;;;13.00;13.00;;;;;26.80;43.81;101299.38;5076820;28;45251;-71
2022/06/18 04:50:24;;;;;;;;;13.00;13.00;;;;;25.03;44.22;101013.31;5077119;28;45476;-71
2022/06/18 04:52:50;;;;;;;;;12.67;12.67;;;;;26.86;43.52;101300.34;5078423;27;46506;-70
2022/06/18 04:55:16;;;;;;;;;12.33;12.33;;;;;26.60;43.34;101257.97;5077392;28;45277;-69
2022/06/18 04:57:41;;;;;;;;;12.67;11.33;;;;;26.38;44.89;101222.31;5076168;28;45451;-70
2022/06/18 05:00:08;;;;;;;;;13.67;13.33;;;;;26.94;43.85;101306.25;5078022;27;45499;-72
2022/06/18 05:02:38;;;;;;;;;14.67;14.67;;;;;26.81;43.62;101287.38;5077526;27;46585;-71
2022/06/18 05:05:06;;;;;;;;;12.67;12.67;;;;;26.19;43.01;101191.56;5093291;27;45420;-71
2022/06/18 05:07:31;;;;;;;;;14.33;12.67;;;;;26.82;43.41;101278.13;5077814;27;45432;-71
2022/06/18 05:09:57;;;;;;;;;12.00;12.00;;;;;26.76;43.17;101265.44;5077461;27;45458;-69
2022/06/18 05:12:22;;;;;;;;;15.33;12.67;;;;;26.31;43.99;101189.69;5076877;27;45245;-71
2022/06/18 05:14:48;;;;;;;;;13.67;13.67;;;;;26.82;43.96;101269.94;5077702;27;45291;-71
2022/06/18 05:17:21;;;;;;;;;11.67;10.67;;;;;27.02;43.58;101307.81;5077424;27;45268;-68
2022/06/18 05:19:47;;;;;;;;;11.33;11.33;;;;;27.03;43.60;101301.31;5076555;27;45552;-71
2022/06/18 05:22:12;;;;;;;;;13.67;13.33;;;;;26.58;43.17;101238.31;5075782;28;47796;-73
2022/06/18 05:24:38;;;;;;;;;15.00;12.67;;;;;26.36;43.14;101191.72;5077375;27;45536;-70
2022/06/18 05:27:04;;;;;;;;;12.00;12.00;;;;;26.92;43.72;101270.19;5077343;27;45263;-70
2022/06/18 05:29:30;;;;;;;;;15.00;15.00;;;;;26.95;42.68;101271.59;5076104;27;45332;-71
2022/06/18 05:31:55;;;;;;;;;16.33;13.67;;;;;27.10;43.47;101288.34;5076989;27;45526;-69
2022/06/18 05:34:21;;;;;;;;;12.67;12.67;;;;;27.11;43.25;101289.19;5092443;27;45916;-69
2022/06/18 05:36:47;;;;;;;;;11.00;11.00;;;;;27.14;43.00;101285.97;5077325;27;45433;-70
2022/06/18 05:39:16;;;;;;;;;11.33;11.33;;;;;26.46;42.88;101175.59;5077283;27;45397;-71
2022/06/18 05:41:41;;;;;;;;;12.33;12.33;;;;;27.16;42.52;101292.00;5077093;28;45826;-71
2022/06/18 05:44:07;;;;;;;;;14.33;12.00;;;;;26.49;42.68;101174.31;5076543;27;45237;-70
2022/06/18 05:46:33;;;;;;;;;14.33;14.33;;;;;27.21;42.34;101282.00;5077145;27;45291;-70
2022/06/18 05:48:58;;;;;;;;;15.33;14.67;;;;;27.22;42.34;101282.84;5077253;28;45490;-70
2022/06/18 05:51:24;;;;;;;;;13.67;12.33;;;;;27.19;42.33;101278.69;5076803;27;46329;-71
2022/06/18 05:53:49;;;;;;;;;12.67;12.67;;;;;27.04;42.63;101232.00;5077122;27;45221;-71
2022/06/18 05:56:15;;;;;;;;;12.67;12.67;;;;;27.39;42.23;101278.28;5075780;28;45293;-70
2022/06/18 05:58:41;;;;;;;;;12.33;11.00;;;;;27.52;42.07;101272.56;5075814;28;45252;-71
2022/06/18 06:01:06;;;;;;;;;11.00;11.00;;;;;27.52;42.31;101261.63;5076937;27;45533;-71
2022/06/18 06:03:32;;;;;;;;;15.00;14.00;;;;;27.61;41.31;101267.50;5077012;27;45403;-70
2022/06/18 06:05:58;;;;;;;;;10.00;10.00;;;;;27.76;41.73;101272.47;5076779;27;45462;-72
2022/06/18 06:08:23;;;;;;;;;15.00;13.00;;;;;27.85;42.37;101265.56;5077028;27;45479;-70
2022/06/18 06:13:33;;;;;;;;;12.67;12.67;;;;;28.16;41.40;101284.13;5076832;28;45487;-70
2022/06/18 06:15:58;;;;;;;;;15.67;14.67;;;;;28.09;40.71;101228.81;5076944;27;45430;-71
2022/06/18 06:18:25;;;;;;;;;11.00;11.00;;;;;28.25;40.87;101237.25;5077055;27;45408;-70
2022/06/18 06:20:54;;;;;;;;;13.00;13.00;;;;;28.46;39.68;101258.41;5076344;27;46692;-70
2022/06/18 06:23:20;;;;;;;;;15.00;14.33;;;;;28.51;39.74;101257.66;5079613;27;45300;-72
2022/06/18 06:25:47;;;;;;;;;13.00;13.00;;;;;28.64;39.85;101254.56;5078623;27;45424;-68
2022/06/18 06:28:21;;;;;;;;;14.33;14.33;;;;;28.38;39.49;101204.09;5080269;27;45548;-71
2022/06/18 06:30:47;;;;;;;;;12.00;10.00;;;;;28.75;39.34;101254.44;5079813;27;45373;-70
2022/06/18 06:33:13;;;;;;;;;12.67;12.67;;;;;28.65;38.45;101226.97;5080055;27;45469;-74
2022/06/18 06:35:38;;;;;;;;;17.33;17.33;;;;;28.65;38.66;101221.47;5080220;27;45290;-70
2022/06/18 06:38:04;;;;;;;;;16.00;12.67;;;;;28.41;38.49;101182.56;5078935;28;45397;-70
2022/06/18 06:40:32;;;;;;;;;11.00;11.00;;;;;28.92;38.20;101253.63;5079954;28;46872;-71
2022/06/18 06:43:01;;;;;;;;;10.67;10.67;;;;;28.96;38.07;101244.63;5079695;27;45397;-71
2022/06/18 06:45:33;;;;;;;;;11.00;11.00;;;;;28.64;37.83;101187.00;5079603;27;45729;-67
2022/06/18 06:47:59;;;;;;;;;13.33;13.33;;;;;28.88;38.05;101214.16;5078785;27;45281;-70
2022/06/18 06:50:27;;;;;;;;;10.67;10.67;;;;;28.97;38.22;101207.13;5079625;27;46904;-71
2022/06/18 06:52:53;;;;;;;;;12.00;11.00;;;;;29.28;37.35;101247.50;5080280;27;45506;-71
2022/06/18 06:58:06;;;;;;;;;12.00;12.00;;;;;29.55;37.49;101257.69;5079746;28;45374;-70
2022/06/18 07:00:35;;;;;;;;;11.67;11.00;;;;;29.14;36.88;101180.50;5079494;27;46241;-69
2022/06/18 07:03:00;;;;;;;;;10.67;10.67;;;;;29.77;37.51;101277.66;5079435;27;45463;-72
2022/06/18 07:05:26;;;;;;;;;10.67;9.67;;;;;29.43;36.54;101204.91;5095134;27;45221;-73
2022/06/18 07:07:51;;;;;;;;;14.67;12.33;;;;;29.96;36.84;101264.41;5078410;28;45500;-70
2022/06/18 07:10:17;;;;;;;;;13.67;12.00;;;;;30.01;36.95;101261.69;5078032;28;48496;-71
2022/06/18 07:12:43;;;;;;;;;20.67;19.33;;;;;29.89;36.92;101236.38;5079212;27;45450;-70
2022/06/18 07:15:09;;;;;;;;;12.00;9.00;;;;;30.13;36.93;101253.34;5079674;27;45384;-69
2022/06/18 07:17:34;;;;;;;;;11.33;11.33;;;;;30.24;36.25;101255.91;5079634;27;45343;-70
2022/06/18 07:20:00;;;;;;;;;13.00;13.00;;;;;30.12;36.78;101225.09;5079297;27;46284;-71
2022/06/18 07:22:26;;;;;;;;;10.67;8.33;;;;;30.43;35.61;101253.56;5079227;27;45400;-70
2022/06/18 07:24:51;;;;;;;;;12.67;12.67;;;;;30.27;36.23;101213.41;5077945;28;45315;-72
2022/06/18 07:27:17;;;;;;;;;11.67;11.67;;;;;29.95;35.51;101148.44;5079400;28;45359;-70
2022/06/18 07:29:43;;;;;;;;;15.67;15.67;;;;;30.70;35.16;101255.44;5079180;28;46578;-71
2022/06/18 07:32:13;;;;;;;;;11.33;11.33;;;;;30.73;35.44;101247.47;5079471;27;45319;-71
2022/06/18 07:34:39;;;;;;;;;12.33;12.00;;;;;30.82;35.68;101245.03;5094133;27;45500;-70
2022/06/18 07:37:04;;;;;;;;;12.67;12.67;;;;;30.96;34.37;101267.38;5078307;27;45400;-71
2022/06/18 07:39:30;;;;;;;;;13.00;12.00;;;;;30.54;34.92;101166.66;5078992;28;45571;-71
2022/06/18 07:41:56;;;;;;;;;12.00;12.00;;;;;30.10;35.45;101078.38;5079292;27;45319;-72
2022/06/18 07:44:25;;;;;;;;;14.33;13.33;;;;;31.07;34.83;101231.44;5078980;27;45407;-73
2022/06/18 07:46:52;;;;;;;;;16.00;15.67;;;;;31.21;34.42;101240.03;5079262;27;45387;-71
2022/06/18 07:49:18;;;;;;;;;12.00;11.00;;;;;31.13;34.20;101224.06;5094086;27;47048;-71
2022/06/18 07:51:44;;;;;;;;;14.00;11.33;;;;;30.86;35.60;101166.56;5094507;27;46575;-69
2022/06/18 07:54:13;;;;;;;;;14.00;14.00;;;;;31.31;33.72;101231.00;5079005;27;45626;-71
2022/06/18 07:56:39;;;;;;;;;14.67;14.00;;;;;31.14;33.61;101192.75;5094533;27;45520;-69
2022/06/18 07:59:04;;;;;;;;;14.00;12.67;;;;;31.39;34.43;101230.47;5078661;27;45321;-71
2022/06/18 08:01:30;;;;;;;;;12.67;11.67;;;;;31.38;34.04;101215.09;5094228;27;45805;-70
2022/06/18 08:03:55;;;;;;;;;13.33;12.33;;;;;31.38;33.75;101201.34;5077167;28;45352;-71
2022/06/18 08:06:21;;;;;;;;;11.67;11.67;;;;;31.44;34.17;101197.53;5077608;28;45509;-70
2022/06/18 08:08:46;;;;;;;;;13.33;12.33;;;;;31.66;33.81;101228.34;5076801;27;47031;-69
2022/06/18 08:11:16;;;;;;;;;15.67;15.67;;;;;31.55;33.43;101204.69;5094029;27;46003;-71
2022/06/18 08:13:42;;;;;;;;;13.33;13.33;;;;;31.71;34.44;101225.59;5078622;27;45374;-74
2022/06/18 08:16:10;;;;;;;;;12.33;12.33;;;;;31.69;33.17;101211.31;5078758;28;45340;-71
2022/06/18 08:18:38;;;;;;;;;12.33;12.33;;;;;31.63;33.70;101189.56;5093993;27;47274;-72
2022/06/18 08:21:14;;;;;;;;;14.33;14.33;;;;;31.25;33.09;101116.72;5077910;27;45242;-70
2022/06/18 08:23:40;;;;;;;;;12.00;12.00;;;;;31.88;34.46;101213.53;5076842;27;45494;-70
2022/06/18 08:26:08;;;;;;;;;15.33;15.33;;;;;31.84;33.04;101179.44;5078314;27;45383;-71
2022/06/18 08:28:35;;;;;;;;;13.00;12.00;;;;;32.04;33.93;101201.44;5077999;28;46602;-72
2022/06/18 08:31:03;;;;;;;;;12.00;12.00;;;;;31.98;33.10;101184.09;5078049;27;45184;-72
2022/06/18 08:33:29;;;;;;;;;13.33;13.33;;;;;32.06;32.61;101186.31;5078140;27;45487;-72
2022/06/18 08:36:01;;;;;;;;;11.00;11.00;;;;;32.11;33.82;101185.47;5078794;27;45569;-71
2022/06/18 08:38:28;;;;;;;;;14.00;12.67;;;;;32.01;33.11;101160.72;5078096;27;45763;-70
2022/06/18 08:41:27;;;;;;;;;12.00;12.00;;;;;32.31;32.91;101196.47;5078142;27;45237;-74
2022/06/18 08:44:19;;;;;;;;;13.67;13.33;;;;;32.44;32.65;101189.59;5077877;27;45288;-71
2022/06/18 08:47:09;;;;;;;;;14.33;12.67;;;;;32.51;32.33;101183.78;5077089;28;45255;-70
2022/06/18 08:49:49;;;;;;;;;15.00;14.67;;;;;32.60;32.92;101176.56;5093295;27;47761;-70
2022/06/18 08:52:27;;;;;;;;;17.33;17.33;;;;;32.65;32.00;101174.66;5093873;27;45280;-72
2022/06/18 08:55:07;;;;;;;;;12.67;12.67;;;;;32.73;32.44;101173.25;5077984;28;45247;-69
2022/06/18 08:57:45;;;;;;;;;13.33;12.33;;;;;32.79;31.72;101172.09;5093704;27;45340;-71
2022/06/18 09:00:19;;;;;;;;;13.67;11.33;;;;;32.70;30.62;101143.50;5093165;27;47473;-71
2022/06/18 09:03:00;;;;;;;;;14.67;13.67;;;;;32.86;31.33;101155.31;5092667;27;45502;-70
2022/06/18 09:05:55;;;;;;;;;15.00;14.67;;;;;32.39;31.44;101076.75;5093117;27;45272;-70
2022/06/18 09:08:29;;;;;;;;;20.00;18.67;;;;;32.56;31.47;101092.91;5077326;27;45228;-69
2022/06/18 09:11:16;;;;;;;;;12.67;12.67;;;;;32.95;31.80;101151.69;5077365;28;47010;-70
2022/06/18 09:13:54;;;;;;;;;16.00;15.00;;;;;32.60;31.35;101082.97;5077320;28;45309;-71
2022/06/18 09:16:23;;;;;;;;;15.33;15.00;;;;;33.03;30.41;101157.69;5077352;27;45371;-71
2022/06/18 09:18:53;;;;;;;;;20.00;16.00;;;;;33.07;31.32;101150.53;5077428;27;45590;-73
2022/06/18 09:21:25;;;;;;;;;12.00;11.67;;;;;32.95;30.95;101118.63;5076976;28;46115;-72
2022/06/18 09:23:59;;;;;;;;;12.33;12.33;;;;;33.13;30.66;101141.94;5077212;27;45290;-69
2022/06/18 09:26:38;;;;;;;;;15.00;14.00;;;;;33.11;30.72;101130.38;5075745;28;45200;-70
2022/06/18 09:29:16;;;;;;;;;17.00;15.00;;;;;33.18;31.50;101139.13;5077431;27;45618;-71
2022/06/18 09:31:57;;;;;;;;;16.33;15.00;;;;;33.16;30.29;101135.84;5077110;27;45506;-72
2022/06/18 09:34:33;;;;;;;;;14.00;14.00;;;;;33.19;30.67;101127.00;5077059;27;45374;-71
2022/06/18 09:37:04;;;;;;;;;15.67;15.67;;;;;33.13;30.65;101114.38;5077090;28;45422;-69
2022/06/18 09:39:37;;;;;;;;;14.33;14.33;;;;;33.19;29.76;101110.47;5077164;27;45272;-73
2022/06/18 09:42:11;;;;;;;;;14.67;14.67;;;;;33.24;29.78;101126.19;5077191;27;46081;-72
2022/06/18 09:44:39;;;;;;;;;16.00;15.00;;;;;33.25;29.90;101111.28;5076870;27;45477;-70
2022/06/18 09:47:37;;;;;;;;;15.67;14.67;;;;;33.24;30.43;101109.66;5076682;27;45241;-73
2022/06/18 09:50:11;;;;;;;;;15.33;14.00;;;;;33.23;30.58;101103.28;5076976;27;45382;-71
2022/06/18 09:52:39;;;;;;;;;12.67;12.33;;;;;33.25;29.74;101111.28;5076792;27;45441;-70
2022/06/18 09:55:12;;;;;;;;;14.00;14.00;;;;;33.16;29.36;101097.28;5076761;27;45406;-70
2022/06/18 09:57:42;;;;;;;;;18.33;17.33;;;;;32.99;28.58;101074.81;5076522;27;45224;-74
2022/06/18 10:00:16;;;;;;;;;13.00;13.00;;;;;33.21;29.16;101093.66;5077482;27;45447;-70
2022/06/18 10:02:46;;;;;;;;;14.00;11.00;;;;;33.08;27.10;101066.78;5076419;27;46863;-73
2022/06/18 10:08:11;;;;;;;;;11.00;11.00;;;;;33.21;28.12;101082.63;5077003;28;45376;-73
2022/06/18 10:11:07;;;;;;;;;17.00;16.00;;;;;33.23;28.34;101081.22;5092344;27;45637;-70
2022/06/18 10:13:37;;;;;;;;;10.67;10.67;;;;;33.06;26.31;101041.44;5076366;27;45758;-70
2022/06/18 10:16:12;;;;;;;;;9.67;9.67;;;;;33.02;27.36;101023.81;5075096;28;46361;-68
2022/06/18 10:18:48;;;;;;;;;10.33;9.33;;;;;32.82;26.08;100992.56;5076891;27;45429;-71
2022/06/18 10:21:36;;;;;;;;;8.33;8.33;;;;;33.27;26.18;101073.25;5076891;27;45503;-75
2022/06/18 10:24:52;;;;;;;;;11.00;11.00;;;;;33.25;26.76;101061.69;5076546;27;46522;-70
2022/06/18 10:27:35;;;;;;;;;11.67;10.33;;;;;33.23;25.91;101053.69;5040826;28;45390;-69
2022/06/18 10:30:08;;;;;;;;;13.67;11.67;;;;;33.12;25.70;101037.53;5076989;27;45229;-69
2022/06/18 10:32:52;;;;;;;;;9.00;9.00;;;;;33.02;26.68;101024.63;5092730;27;45434;-72
2022/06/18 10:35:48;;;;;;;;;10.67;10.67;;;;;33.20;25.61;101054.25;5091905;27;47604;-71
2022/06/18 10:38:50;;;;;;;;;12.00;9.33;;;;;33.09;26.20;101040.88;5076455;28;45437;-72
2022/06/18 10:41:22;;;;;;;;;10.67;10.00;;;;;33.03;26.93;101025.47;5075375;27;45271;-71
2022/06/18 10:44:08;;;;;;;;;11.33;10.33;;;;;33.12;25.17;101034.78;5076744;27;45267;-70
2022/06/18 10:46:33;;;;;;;;;11.67;11.67;;;;;33.08;25.43;101042.78;5074930;28;48487;-74
2022/06/18 10:49:06;;;;;;;;;11.33;11.00;;;;;33.08;26.28;101044.72;5092110;27;45989;-72
2022/06/18 10:51:47;;;;;;;;;17.33;14.67;;;;;32.96;25.38;101012.03;5077176;27;45458;-73
2022/06/18 10:54:13;;;;;;;;;12.67;9.33;;;;;33.07;24.85;101021.88;5076583;28;45293;-71
2022/06/18 10:57:05;;;;;;;;;11.67;8.67;;;;;33.08;25.39;101011.66;5076070;27;45763;-71
2022/06/18 10:59:35;;;;;;;;;10.33;8.67;;;;;33.08;24.95;101017.19;5072946;28;45498;-72
2022/06/18 11:02:16;;;;;;;;;9.00;9.00;;;;;33.07;24.91;101010.03;5076284;27;45377;-73
2022/06/18 11:04:53;;;;;;;;;11.67;11.67;;;;;32.95;25.73;100986.41;5092087;27;45621;-73
2022/06/18 11:07:23;;;;;;;;;9.00;8.67;;;;;33.02;25.91;100985.25;5074653;28;49201;-73
2022/06/18 11:09:48;;;;;;;;;12.67;12.33;;;;;32.72;26.22;100937.56;5078434;28;45504;-70
2022/06/18 11:12:27;;;;;;;;;10.67;10.67;;;;;33.01;26.24;100980.84;5080069;27;45205;-71
2022/06/18 11:14:53;;;;;;;;;11.67;10.33;;;;;32.73;25.91;100952.97;5079846;27;45660;-73
2022/06/18 11:17:20;;;;;;;;;11.67;9.67;;;;;31.65;25.60;100756.66;5079152;28;45501;-71
2022/06/18 11:19:49;;;;;;;;;9.00;9.00;;;;;33.06;25.26;100976.16;5079102;27;45496;-69
2022/06/18 11:22:25;;;;;;;;;12.00;12.00;;;;;32.81;25.21;100930.34;5079716;27;45330;-72
2022/06/18 11:25:03;;;;;;;;;9.33;9.33;;;;;33.02;24.48;100965.97;5079634;28;45449;-71
2022/06/18 11:27:34;;;;;;;;;9.33;9.00;;;;;32.66;24.84;100883.66;5078891;27;45651;-70
2022/06/18 11:30:09;;;;;;;;;11.33;10.00;;;;;32.86;26.09;100922.06;5077456;28;45218;-69
2022/06/18 11:32:41;;;;;;;;;10.00;10.00;;;;;33.05;25.50;100957.16;5079187;28;45432;-70
2022/06/18 11:35:32;;;;;;;;;10.67;10.00;;;;;33.12;25.99;100965.91;5079180;27;45493;-72